sensor_id;sensor_type;location;lat;lon;timestamp;P1;durP1;ratioP1;P2;durP2;ratioP2
19940;SDS011;10132;50.864;5.176;2023-06-26T00:01:23;6.00;;;4.72;;
19940;SDS011;10132;50.864;5.176;2023-06-26T00:03:37;5.30;;;4.80;;
19940;SDS011;10132;50.864;5.176;2023-06-26T00:05:42;5.43;;;4.93;;
19940;SDS011;10132;50.864;5.176;2023-06-26T00:08:00;5.65;;;5.15;;
19940;SDS011;10132;50.864;5.176;2023-06-26T00:10:06;6.70;;;5.30;;
19940;SDS011;10132;50.864;5.176;2023-06-26T00:12:17;6.05;;;5.55;;
19940;SDS011;10132;50.864;5.176;2023-06-26T00:14:25;5.97;;;5.47;;
19940;SDS011;10132;50.864;5.176;2023-06-26T00:16:34;5.63;;;5.00;;
19940;SDS011;10132;50.864;5.176;2023-06-26T00:18:39;6.75;;;5.13;;
19940;SDS011;10132;50.864;5.176;2023-06-26T00:20:44;6.95;;;5.45;;
19940;SDS011;10132;50.864;5.176;2023-06-26T00:22:47;7.30;;;4.88;;
19940;SDS011;10132;50.864;5.176;2023-06-26T00:24:50;5.90;;;5.40;;
19940;SDS011;10132;50.864;5.176;2023-06-26T00:26:54;8.15;;;5.13;;
19940;SDS011;10132;50.864;5.176;2023-06-26T00:28:58;5.68;;;5.18;;
19940;SDS011;10132;50.864;5.176;2023-06-26T00:31:17;6.60;;;5.45;;
19940;SDS011;10132;50.864;5.176;2023-06-26T00:33:24;8.90;;;5.22;;
19940;SDS011;10132;50.864;5.176;2023-06-26T00:35:34;7.57;;;5.30;;
19940;SDS011;10132;50.864;5.176;2023-06-26T00:37:53;8.80;;;5.53;;
19940;SDS011;10132;50.864;5.176;2023-06-26T00:39:58;7.88;;;4.82;;
19940;SDS011;10132;50.864;5.176;2023-06-26T00:42:06;5.93;;;5.40;;
19940;SDS011;10132;50.864;5.176;2023-06-26T00:44:23;6.47;;;5.55;;
19940;SDS011;10132;50.864;5.176;2023-06-26T00:46:29;5.68;;;5.18;;
19940;SDS011;10132;50.864;5.176;2023-06-26T00:48:33;6.20;;;5.57;;
19940;SDS011;10132;50.864;5.176;2023-06-26T00:50:37;6.80;;;5.70;;
19940;SDS011;10132;50.864;5.176;2023-06-26T00:52:40;6.13;;;5.50;;
19940;SDS011;10132;50.864;5.176;2023-06-26T00:54:48;8.32;;;5.35;;
19940;SDS011;10132;50.864;5.176;2023-06-26T00:56:52;6.55;;;5.55;;
19940;SDS011;10132;50.864;5.176;2023-06-26T00:58:55;7.15;;;6.18;;
19940;SDS011;10132;50.864;5.176;2023-06-26T01:01:03;6.10;;;5.57;;
19940;SDS011;10132;50.864;5.176;2023-06-26T01:03:08;6.38;;;5.30;;
19940;SDS011;10132;50.864;5.176;2023-06-26T01:05:23;8.50;;;5.75;;
19940;SDS011;10132;50.864;5.176;2023-06-26T01:07:26;7.40;;;5.60;;
19940;SDS011;10132;50.864;5.176;2023-06-26T01:09:43;6.45;;;5.35;;
19940;SDS011;10132;50.864;5.176;2023-06-26T01:11:52;7.13;;;5.22;;
19940;SDS011;10132;50.864;5.176;2023-06-26T01:13:59;7.13;;;6.25;;
19940;SDS011;10132;50.864;5.176;2023-06-26T01:16:14;8.07;;;6.00;;
19940;SDS011;10132;50.864;5.176;2023-06-26T01:18:23;6.75;;;5.20;;
19940;SDS011;10132;50.864;5.176;2023-06-26T01:20:36;7.82;;;5.47;;
19940;SDS011;10132;50.864;5.176;2023-06-26T01:22:45;7.93;;;5.45;;
19940;SDS011;10132;50.864;5.176;2023-06-26T01:25:02;7.05;;;5.30;;
19940;SDS011;10132;50.864;5.176;2023-06-26T01:27:35;7.88;;;5.25;;
19940;SDS011;10132;50.864;5.176;2023-06-26T01:29:39;6.68;;;5.50;;
19940;SDS011;10132;50.864;5.176;2023-06-26T01:31:43;11.02;;;5.50;;
19940;SDS011;10132;50.864;5.176;2023-06-26T01:33:50;7.30;;;5.55;;
19940;SDS011;10132;50.864;5.176;2023-06-26T01:35:54;6.10;;;5.50;;
19940;SDS011;10132;50.864;5.176;2023-06-26T01:38:11;9.20;;;5.75;;
19940;SDS011;10132;50.864;5.176;2023-06-26T01:40:16;6.63;;;5.78;;
19940;SDS011;10132;50.864;5.176;2023-06-26T01:42:24;6.20;;;5.60;;
19940;SDS011;10132;50.864;5.176;2023-06-26T01:44:30;6.00;;;5.30;;
19940;SDS011;10132;50.864;5.176;2023-06-26T01:46:48;6.50;;;5.75;;
19940;SDS011;10132;50.864;5.176;2023-06-26T01:49:12;5.68;;;4.80;;
19940;SDS011;10132;50.864;5.176;2023-06-26T01:51:24;5.65;;;4.70;;
19940;SDS011;10132;50.864;5.176;2023-06-26T01:53:35;9.32;;;4.85;;
19940;SDS011;10132;50.864;5.176;2023-06-26T01:55:45;5.13;;;4.60;;
19940;SDS011;10132;50.864;5.176;2023-06-26T01:57:52;6.13;;;4.50;;
19940;SDS011;10132;50.864;5.176;2023-06-26T02:00:01;6.75;;;4.45;;
19940;SDS011;10132;50.864;5.176;2023-06-26T02:02:10;5.50;;;4.30;;
19940;SDS011;10132;50.864;5.176;2023-06-26T02:04:25;5.38;;;4.53;;
19940;SDS011;10132;50.864;5.176;2023-06-26T02:06:30;6.00;;;4.10;;
19940;SDS011;10132;50.864;5.176;2023-06-26T02:08:34;6.05;;;4.20;;
19940;SDS011;10132;50.864;5.176;2023-06-26T02:10:38;8.07;;;4.53;;
19940;SDS011;10132;50.864;5.176;2023-06-26T02:12:48;4.78;;;4.07;;
19940;SDS011;10132;50.864;5.176;2023-06-26T02:14:53;6.30;;;4.65;;
19940;SDS011;10132;50.864;5.176;2023-06-26T02:17:00;5.13;;;3.95;;
19940;SDS011;10132;50.864;5.176;2023-06-26T02:19:05;5.53;;;4.18;;
19940;SDS011;10132;50.864;5.176;2023-06-26T02:21:09;5.15;;;3.65;;
19940;SDS011;10132;50.864;5.176;2023-06-26T02:23:40;6.00;;;4.20;;
19940;SDS011;10132;50.864;5.176;2023-06-26T02:25:43;5.32;;;4.03;;
19940;SDS011;10132;50.864;5.176;2023-06-26T02:27:47;5.32;;;4.10;;
19940;SDS011;10132;50.864;5.176;2023-06-26T02:29:52;5.35;;;3.97;;
19940;SDS011;10132;50.864;5.176;2023-06-26T02:31:58;7.55;;;4.18;;
19940;SDS011;10132;50.864;5.176;2023-06-26T02:34:02;4.47;;;4.00;;
19940;SDS011;10132;50.864;5.176;2023-06-26T02:36:13;5.70;;;3.70;;
19940;SDS011;10132;50.864;5.176;2023-06-26T02:38:20;6.60;;;3.92;;
19940;SDS011;10132;50.864;5.176;2023-06-26T02:40:28;5.63;;;4.00;;
19940;SDS011;10132;50.864;5.176;2023-06-26T02:42:31;5.43;;;4.05;;
19940;SDS011;10132;50.864;5.176;2023-06-26T02:44:35;5.10;;;3.63;;
19940;SDS011;10132;50.864;5.176;2023-06-26T02:46:39;5.55;;;4.00;;
19940;SDS011;10132;50.864;5.176;2023-06-26T02:48:52;4.72;;;4.18;;
19940;SDS011;10132;50.864;5.176;2023-06-26T02:50:59;5.18;;;3.92;;
19940;SDS011;10132;50.864;5.176;2023-06-26T02:53:13;4.93;;;3.58;;
19940;SDS011;10132;50.864;5.176;2023-06-26T02:55:17;8.48;;;4.22;;
19940;SDS011;10132;50.864;5.176;2023-06-26T02:57:19;7.63;;;3.90;;
19940;SDS011;10132;50.864;5.176;2023-06-26T02:59:24;6.25;;;3.88;;
19940;SDS011;10132;50.864;5.176;2023-06-26T03:01:31;4.75;;;3.63;;
19940;SDS011;10132;50.864;5.176;2023-06-26T03:03:37;5.75;;;3.80;;
19940;SDS011;10132;50.864;5.176;2023-06-26T03:05:44;7.03;;;3.92;;
19940;SDS011;10132;50.864;5.176;2023-06-26T03:07:50;6.10;;;3.72;;
19940;SDS011;10132;50.864;5.176;2023-06-26T03:09:53;4.38;;;3.80;;
19940;SDS011;10132;50.864;5.176;2023-06-26T03:12:00;5.68;;;3.83;;
19940;SDS011;10132;50.864;5.176;2023-06-26T03:14:06;6.55;;;3.50;;
19940;SDS011;10132;50.864;5.176;2023-06-26T03:16:11;6.40;;;3.90;;
19940;SDS011;10132;50.864;5.176;2023-06-26T03:18:17;6.70;;;3.67;;
19940;SDS011;10132;50.864;5.176;2023-06-26T03:20:23;7.97;;;3.58;;
19940;SDS011;10132;50.864;5.176;2023-06-26T03:22:29;5.00;;;3.85;;
19940;SDS011;10132;50.864;5.176;2023-06-26T03:24:32;7.50;;;4.07;;
19940;SDS011;10132;50.864;5.176;2023-06-26T03:26:43;5.32;;;3.55;;
19940;SDS011;10132;50.864;5.176;2023-06-26T03:28:47;6.97;;;3.50;;
19940;SDS011;10132;50.864;5.176;2023-06-26T03:30:50;5.47;;;3.75;;
19940;SDS011;10132;50.864;5.176;2023-06-26T03:33:01;6.22;;;3.88;;
19940;SDS011;10132;50.864;5.176;2023-06-26T03:35:17;6.22;;;4.00;;
19940;SDS011;10132;50.864;5.176;2023-06-26T03:37:22;6.20;;;3.80;;
19940;SDS011;10132;50.864;5.176;2023-06-26T03:41:49;6.28;;;3.95;;
19940;SDS011;10132;50.864;5.176;2023-06-26T03:43:53;6.55;;;4.40;;
19940;SDS011;10132;50.864;5.176;2023-06-26T03:46:10;6.45;;;4.03;;
19940;SDS011;10132;50.864;5.176;2023-06-26T03:48:14;8.80;;;4.10;;
19940;SDS011;10132;50.864;5.176;2023-06-26T03:50:28;7.97;;;4.22;;
19940;SDS011;10132;50.864;5.176;2023-06-26T03:52:39;7.30;;;3.90;;
19940;SDS011;10132;50.864;5.176;2023-06-26T03:54:43;5.75;;;4.10;;
19940;SDS011;10132;50.864;5.176;2023-06-26T03:57:00;5.40;;;3.97;;
19940;SDS011;10132;50.864;5.176;2023-06-26T03:59:14;7.85;;;4.25;;
19940;SDS011;10132;50.864;5.176;2023-06-26T04:01:32;8.77;;;4.25;;
19940;SDS011;10132;50.864;5.176;2023-06-26T04:03:35;6.93;;;4.07;;
19940;SDS011;10132;50.864;5.176;2023-06-26T04:05:42;7.25;;;4.20;;
19940;SDS011;10132;50.864;5.176;2023-06-26T04:07:54;7.57;;;4.25;;
19940;SDS011;10132;50.864;5.176;2023-06-26T04:10:02;6.78;;;3.97;;
19940;SDS011;10132;50.864;5.176;2023-06-26T04:12:07;9.73;;;4.22;;
19940;SDS011;10132;50.864;5.176;2023-06-26T04:14:11;8.35;;;4.53;;
19940;SDS011;10132;50.864;5.176;2023-06-26T04:16:18;7.22;;;4.10;;
19940;SDS011;10132;50.864;5.176;2023-06-26T04:18:37;8.20;;;3.88;;
19940;SDS011;10132;50.864;5.176;2023-06-26T04:20:42;9.93;;;4.32;;
19940;SDS011;10132;50.864;5.176;2023-06-26T04:23:09;10.95;;;4.75;;
19940;SDS011;10132;50.864;5.176;2023-06-26T04:27:43;6.90;;;4.43;;
19940;SDS011;10132;50.864;5.176;2023-06-26T04:29:47;9.13;;;4.68;;
19940;SDS011;10132;50.864;5.176;2023-06-26T04:31:50;10.30;;;5.00;;
19940;SDS011;10132;50.864;5.176;2023-06-26T04:33:58;5.95;;;4.38;;
19940;SDS011;10132;50.864;5.176;2023-06-26T04:36:04;11.13;;;4.72;;
19940;SDS011;10132;50.864;5.176;2023-06-26T04:38:07;10.13;;;4.65;;
19940;SDS011;10132;50.864;5.176;2023-06-26T04:40:16;9.55;;;4.40;;
19940;SDS011;10132;50.864;5.176;2023-06-26T04:42:23;9.18;;;4.03;;
19940;SDS011;10132;50.864;5.176;2023-06-26T04:44:29;6.65;;;4.50;;
19940;SDS011;10132;50.864;5.176;2023-06-26T04:46:35;9.23;;;4.65;;
19940;SDS011;10132;50.864;5.176;2023-06-26T04:48:41;9.75;;;4.45;;
19940;SDS011;10132;50.864;5.176;2023-06-26T04:50:49;8.80;;;4.60;;
19940;SDS011;10132;50.864;5.176;2023-06-26T04:52:54;9.02;;;4.68;;
19940;SDS011;10132;50.864;5.176;2023-06-26T04:55:01;11.65;;;4.55;;
19940;SDS011;10132;50.864;5.176;2023-06-26T04:57:09;7.97;;;4.32;;
19940;SDS011;10132;50.864;5.176;2023-06-26T04:59:15;9.32;;;5.18;;
19940;SDS011;10132;50.864;5.176;2023-06-26T05:01:21;11.25;;;4.85;;
19940;SDS011;10132;50.864;5.176;2023-06-26T05:03:24;9.43;;;4.57;;
19940;SDS011;10132;50.864;5.176;2023-06-26T05:05:28;10.13;;;4.60;;
19940;SDS011;10132;50.864;5.176;2023-06-26T05:07:41;12.23;;;4.78;;
19940;SDS011;10132;50.864;5.176;2023-06-26T05:09:44;9.30;;;4.50;;
19940;SDS011;10132;50.864;5.176;2023-06-26T05:11:51;10.23;;;5.30;;
19940;SDS011;10132;50.864;5.176;2023-06-26T05:14:07;13.82;;;4.78;;
19940;SDS011;10132;50.864;5.176;2023-06-26T05:16:11;10.95;;;4.82;;
19940;SDS011;10132;50.864;5.176;2023-06-26T05:18:15;9.85;;;4.78;;
19940;SDS011;10132;50.864;5.176;2023-06-26T05:20:20;9.30;;;4.15;;
19940;SDS011;10132;50.864;5.176;2023-06-26T05:22:24;8.65;;;4.65;;
19940;SDS011;10132;50.864;5.176;2023-06-26T05:24:32;8.75;;;4.38;;
19940;SDS011;10132;50.864;5.176;2023-06-26T05:26:55;11.63;;;4.40;;
19940;SDS011;10132;50.864;5.176;2023-06-26T05:28:59;9.90;;;4.68;;
19940;SDS011;10132;50.864;5.176;2023-06-26T05:31:05;13.32;;;4.90;;
19940;SDS011;10132;50.864;5.176;2023-06-26T05:33:13;11.85;;;4.38;;
19940;SDS011;10132;50.864;5.176;2023-06-26T05:35:20;10.30;;;4.20;;
19940;SDS011;10132;50.864;5.176;2023-06-26T05:37:25;9.20;;;4.47;;
19940;SDS011;10132;50.864;5.176;2023-06-26T05:39:36;14.13;;;4.22;;
19940;SDS011;10132;50.864;5.176;2023-06-26T05:41:47;12.60;;;4.72;;
19940;SDS011;10132;50.864;5.176;2023-06-26T05:43:51;14.18;;;4.75;;
19940;SDS011;10132;50.864;5.176;2023-06-26T05:45:58;12.02;;;4.80;;
19940;SDS011;10132;50.864;5.176;2023-06-26T05:48:09;10.63;;;4.47;;
19940;SDS011;10132;50.864;5.176;2023-06-26T05:50:30;11.35;;;4.25;;
19940;SDS011;10132;50.864;5.176;2023-06-26T05:52:40;15.88;;;4.15;;
19940;SDS011;10132;50.864;5.176;2023-06-26T05:54:54;9.75;;;4.07;;
19940;SDS011;10132;50.864;5.176;2023-06-26T05:56:59;13.95;;;4.50;;
19940;SDS011;10132;50.864;5.176;2023-06-26T05:59:04;11.75;;;4.13;;
19940;SDS011;10132;50.864;5.176;2023-06-26T06:01:09;12.30;;;4.32;;
19940;SDS011;10132;50.864;5.176;2023-06-26T06:03:14;11.25;;;4.03;;
19940;SDS011;10132;50.864;5.176;2023-06-26T06:05:22;11.15;;;3.83;;
19940;SDS011;10132;50.864;5.176;2023-06-26T06:07:43;9.80;;;3.92;;
19940;SDS011;10132;50.864;5.176;2023-06-26T06:09:49;10.93;;;3.50;;
19940;SDS011;10132;50.864;5.176;2023-06-26T06:11:54;11.18;;;3.70;;
19940;SDS011;10132;50.864;5.176;2023-06-26T06:13:58;11.63;;;3.67;;
19940;SDS011;10132;50.864;5.176;2023-06-26T06:16:09;9.38;;;3.03;;
19940;SDS011;10132;50.864;5.176;2023-06-26T06:18:13;11.07;;;3.70;;
19940;SDS011;10132;50.864;5.176;2023-06-26T06:20:20;13.85;;;3.75;;
19940;SDS011;10132;50.864;5.176;2023-06-26T06:22:42;11.02;;;4.07;;
19940;SDS011;10132;50.864;5.176;2023-06-26T06:24:44;11.20;;;3.75;;
19940;SDS011;10132;50.864;5.176;2023-06-26T06:26:51;8.95;;;3.50;;
19940;SDS011;10132;50.864;5.176;2023-06-26T06:28:54;8.93;;;3.38;;
19940;SDS011;10132;50.864;5.176;2023-06-26T06:31:07;9.65;;;3.95;;
19940;SDS011;10132;50.864;5.176;2023-06-26T06:33:23;10.88;;;3.40;;
19940;SDS011;10132;50.864;5.176;2023-06-26T06:35:26;10.15;;;3.17;;
19940;SDS011;10132;50.864;5.176;2023-06-26T06:37:29;8.85;;;3.03;;
19940;SDS011;10132;50.864;5.176;2023-06-26T06:39:43;8.93;;;3.22;;
19940;SDS011;10132;50.864;5.176;2023-06-26T06:41:47;13.65;;;3.50;;
19940;SDS011;10132;50.864;5.176;2023-06-26T06:43:50;12.70;;;4.00;;
19940;SDS011;10132;50.864;5.176;2023-06-26T06:45:56;11.57;;;3.45;;
19940;SDS011;10132;50.864;5.176;2023-06-26T06:47:59;12.13;;;3.22;;
19940;SDS011;10132;50.864;5.176;2023-06-26T06:50:03;10.93;;;3.08;;
19940;SDS011;10132;50.864;5.176;2023-06-26T06:52:09;8.45;;;2.90;;
19940;SDS011;10132;50.864;5.176;2023-06-26T06:54:15;9.05;;;3.13;;
19940;SDS011;10132;50.864;5.176;2023-06-26T06:56:24;7.47;;;2.75;;
19940;SDS011;10132;50.864;5.176;2023-06-26T06:58:45;10.85;;;3.10;;
19940;SDS011;10132;50.864;5.176;2023-06-26T07:00:48;9.32;;;2.72;;
19940;SDS011;10132;50.864;5.176;2023-06-26T07:03:07;8.88;;;2.67;;
19940;SDS011;10132;50.864;5.176;2023-06-26T07:05:13;11.48;;;3.55;;
19940;SDS011;10132;50.864;5.176;2023-06-26T07:07:18;6.95;;;2.42;;
19940;SDS011;10132;50.864;5.176;2023-06-26T07:09:29;8.30;;;2.85;;
19940;SDS011;10132;50.864;5.176;2023-06-26T07:11:38;12.27;;;2.85;;
19940;SDS011;10132;50.864;5.176;2023-06-26T07:13:41;8.23;;;2.55;;
19940;SDS011;10132;50.864;5.176;2023-06-26T07:15:46;8.13;;;2.70;;
19940;SDS011;10132;50.864;5.176;2023-06-26T07:17:58;5.90;;;2.70;;
19940;SDS011;10132;50.864;5.176;2023-06-26T07:20:11;10.93;;;3.42;;
19940;SDS011;10132;50.864;5.176;2023-06-26T07:22:17;7.82;;;2.65;;
19940;SDS011;10132;50.864;5.176;2023-06-26T07:24:21;9.82;;;2.88;;
19940;SDS011;10132;50.864;5.176;2023-06-26T07:26:24;8.32;;;2.60;;
19940;SDS011;10132;50.864;5.176;2023-06-26T07:28:30;7.97;;;2.92;;
19940;SDS011;10132;50.864;5.176;2023-06-26T07:30:35;8.63;;;2.85;;
19940;SDS011;10132;50.864;5.176;2023-06-26T07:32:39;8.90;;;2.53;;
19940;SDS011;10132;50.864;5.176;2023-06-26T07:34:42;6.97;;;2.63;;
19940;SDS011;10132;50.864;5.176;2023-06-26T07:36:46;12.10;;;2.55;;
19940;SDS011;10132;50.864;5.176;2023-06-26T07:38:49;12.52;;;3.22;;
19940;SDS011;10132;50.864;5.176;2023-06-26T07:40:53;9.05;;;2.85;;
19940;SDS011;10132;50.864;5.176;2023-06-26T07:43:03;8.68;;;2.85;;
19940;SDS011;10132;50.864;5.176;2023-06-26T07:45:09;12.23;;;3.30;;
19940;SDS011;10132;50.864;5.176;2023-06-26T07:47:21;9.48;;;2.88;;
19940;SDS011;10132;50.864;5.176;2023-06-26T07:49:31;9.95;;;3.22;;
19940;SDS011;10132;50.864;5.176;2023-06-26T07:51:39;7.72;;;2.60;;
19940;SDS011;10132;50.864;5.176;2023-06-26T07:53:42;9.77;;;3.13;;
19940;SDS011;10132;50.864;5.176;2023-06-26T07:55:46;8.95;;;2.70;;
19940;SDS011;10132;50.864;5.176;2023-06-26T07:57:48;8.77;;;2.85;;
19940;SDS011;10132;50.864;5.176;2023-06-26T07:59:52;7.43;;;2.55;;
19940;SDS011;10132;50.864;5.176;2023-06-26T08:01:59;7.28;;;2.63;;
19940;SDS011;10132;50.864;5.176;2023-06-26T08:04:06;8.93;;;2.60;;
19940;SDS011;10132;50.864;5.176;2023-06-26T08:06:15;11.95;;;2.80;;
19940;SDS011;10132;50.864;5.176;2023-06-26T08:08:29;9.52;;;2.60;;
19940;SDS011;10132;50.864;5.176;2023-06-26T08:10:42;11.00;;;3.10;;
19940;SDS011;10132;50.864;5.176;2023-06-26T08:12:51;8.82;;;2.65;;
19940;SDS011;10132;50.864;5.176;2023-06-26T08:14:55;10.93;;;2.70;;
19940;SDS011;10132;50.864;5.176;2023-06-26T08:17:05;8.45;;;2.60;;
19940;SDS011;10132;50.864;5.176;2023-06-26T08:19:07;9.05;;;2.90;;
19940;SDS011;10132;50.864;5.176;2023-06-26T08:21:14;8.48;;;2.78;;
19940;SDS011;10132;50.864;5.176;2023-06-26T08:23:17;11.18;;;2.70;;
19940;SDS011;10132;50.864;5.176;2023-06-26T08:25:27;7.22;;;2.65;;
19940;SDS011;10132;50.864;5.176;2023-06-26T08:27:35;8.45;;;2.80;;
19940;SDS011;10132;50.864;5.176;2023-06-26T08:29:42;6.68;;;2.65;;
19940;SDS011;10132;50.864;5.176;2023-06-26T08:31:46;7.00;;;2.63;;
19940;SDS011;10132;50.864;5.176;2023-06-26T08:33:52;11.27;;;2.97;;
19940;SDS011;10132;50.864;5.176;2023-06-26T08:35:56;8.55;;;2.63;;
19940;SDS011;10132;50.864;5.176;2023-06-26T08:38:03;7.95;;;2.80;;
19940;SDS011;10132;50.864;5.176;2023-06-26T08:40:10;6.40;;;2.55;;
19940;SDS011;10132;50.864;5.176;2023-06-26T08:42:22;9.18;;;2.85;;
19940;SDS011;10132;50.864;5.176;2023-06-26T08:44:25;8.82;;;2.60;;
19940;SDS011;10132;50.864;5.176;2023-06-26T08:46:42;7.05;;;2.45;;
19940;SDS011;10132;50.864;5.176;2023-06-26T08:48:48;7.93;;;2.67;;
19940;SDS011;10132;50.864;5.176;2023-06-26T08:51:02;5.88;;;2.10;;
19940;SDS011;10132;50.864;5.176;2023-06-26T08:53:20;10.30;;;2.85;;
19940;SDS011;10132;50.864;5.176;2023-06-26T08:55:29;7.82;;;2.35;;
19940;SDS011;10132;50.864;5.176;2023-06-26T08:57:43;9.65;;;2.17;;
19940;SDS011;10132;50.864;5.176;2023-06-26T08:59:57;4.90;;;2.25;;
19940;SDS011;10132;50.864;5.176;2023-06-26T09:02:14;6.50;;;2.20;;
19940;SDS011;10132;50.864;5.176;2023-06-26T09:04:19;6.03;;;2.20;;
19940;SDS011;10132;50.864;5.176;2023-06-26T09:06:23;5.47;;;2.22;;
19940;SDS011;10132;50.864;5.176;2023-06-26T09:08:26;7.15;;;2.03;;
19940;SDS011;10132;50.864;5.176;2023-06-26T09:10:30;5.55;;;2.38;;
19940;SDS011;10132;50.864;5.176;2023-06-26T09:12:34;5.97;;;1.85;;
19940;SDS011;10132;50.864;5.176;2023-06-26T09:14:46;5.93;;;2.15;;
19940;SDS011;10132;50.864;5.176;2023-06-26T09:16:53;8.75;;;2.55;;
19940;SDS011;10132;50.864;5.176;2023-06-26T09:18:59;5.32;;;2.10;;
19940;SDS011;10132;50.864;5.176;2023-06-26T09:21:12;4.32;;;1.92;;
19940;SDS011;10132;50.864;5.176;2023-06-26T09:23:16;3.88;;;1.90;;
19940;SDS011;10132;50.864;5.176;2023-06-26T09:25:22;6.13;;;1.80;;
19940;SDS011;10132;50.864;5.176;2023-06-26T09:27:25;6.70;;;2.30;;
19940;SDS011;10132;50.864;5.176;2023-06-26T09:29:31;3.42;;;1.58;;
19940;SDS011;10132;50.864;5.176;2023-06-26T09:31:49;4.75;;;2.00;;
19940;SDS011;10132;50.864;5.176;2023-06-26T09:33:55;5.88;;;1.77;;
19940;SDS011;10132;50.864;5.176;2023-06-26T09:36:01;5.20;;;1.83;;
19940;SDS011;10132;50.864;5.176;2023-06-26T09:38:18;5.53;;;1.90;;
19940;SDS011;10132;50.864;5.176;2023-06-26T09:40:21;4.72;;;1.50;;
19940;SDS011;10132;50.864;5.176;2023-06-26T09:42:23;3.70;;;1.60;;
19940;SDS011;10132;50.864;5.176;2023-06-26T09:44:33;9.50;;;1.83;;
19940;SDS011;10132;50.864;5.176;2023-06-26T09:46:40;5.43;;;1.80;;
19940;SDS011;10132;50.864;5.176;2023-06-26T09:48:48;5.82;;;1.63;;
19940;SDS011;10132;50.864;5.176;2023-06-26T09:51:00;4.28;;;1.55;;
19940;SDS011;10132;50.864;5.176;2023-06-26T09:53:07;6.55;;;1.38;;
19940;SDS011;10132;50.864;5.176;2023-06-26T09:55:33;4.68;;;1.55;;
19940;SDS011;10132;50.864;5.176;2023-06-26T09:57:47;3.30;;;1.52;;
19940;SDS011;10132;50.864;5.176;2023-06-26T10:00:03;5.85;;;1.67;;
19940;SDS011;10132;50.864;5.176;2023-06-26T10:02:09;5.72;;;1.50;;
19940;SDS011;10132;50.864;5.176;2023-06-26T10:04:14;5.13;;;1.85;;
19940;SDS011;10132;50.864;5.176;2023-06-26T10:06:17;6.53;;;1.85;;
19940;SDS011;10132;50.864;5.176;2023-06-26T10:08:29;6.40;;;1.55;;
19940;SDS011;10132;50.864;5.176;2023-06-26T10:10:52;4.18;;;1.73;;
19940;SDS011;10132;50.864;5.176;2023-06-26T10:12:59;6.25;;;1.80;;
19940;SDS011;10132;50.864;5.176;2023-06-26T10:15:07;5.72;;;1.55;;
19940;SDS011;10132;50.864;5.176;2023-06-26T10:17:27;6.05;;;1.80;;
19940;SDS011;10132;50.864;5.176;2023-06-26T10:19:41;8.68;;;1.90;;
19940;SDS011;10132;50.864;5.176;2023-06-26T10:21:51;4.65;;;1.67;;
19940;SDS011;10132;50.864;5.176;2023-06-26T10:23:56;10.00;;;1.80;;
19940;SDS011;10132;50.864;5.176;2023-06-26T10:26:06;6.18;;;1.67;;
19940;SDS011;10132;50.864;5.176;2023-06-26T10:28:16;3.83;;;1.73;;
19940;SDS011;10132;50.864;5.176;2023-06-26T10:30:23;5.97;;;1.30;;
19940;SDS011;10132;50.864;5.176;2023-06-26T10:32:34;4.90;;;1.30;;
19940;SDS011;10132;50.864;5.176;2023-06-26T10:34:50;3.70;;;1.52;;
19940;SDS011;10132;50.864;5.176;2023-06-26T10:37:01;6.00;;;1.80;;
19940;SDS011;10132;50.864;5.176;2023-06-26T10:39:08;6.20;;;1.55;;
19940;SDS011;10132;50.864;5.176;2023-06-26T10:41:17;5.82;;;1.85;;
19940;SDS011;10132;50.864;5.176;2023-06-26T10:43:29;5.97;;;1.90;;
19940;SDS011;10132;50.864;5.176;2023-06-26T10:45:42;6.00;;;1.83;;
19940;SDS011;10132;50.864;5.176;2023-06-26T10:47:47;4.32;;;1.60;;
19940;SDS011;10132;50.864;5.176;2023-06-26T10:49:55;3.10;;;1.20;;
19940;SDS011;10132;50.864;5.176;2023-06-26T10:52:00;8.77;;;1.70;;
19940;SDS011;10132;50.864;5.176;2023-06-26T10:54:13;7.53;;;1.67;;
19940;SDS011;10132;50.864;5.176;2023-06-26T10:58:48;3.83;;;1.35;;
19940;SDS011;10132;50.864;5.176;2023-06-26T11:00:52;5.65;;;1.88;;
19940;SDS011;10132;50.864;5.176;2023-06-26T11:03:23;3.42;;;1.58;;
19940;SDS011;10132;50.864;5.176;2023-06-26T11:05:37;4.40;;;1.52;;
19940;SDS011;10132;50.864;5.176;2023-06-26T11:10:08;4.43;;;1.60;;
19940;SDS011;10132;50.864;5.176;2023-06-26T11:12:36;3.38;;;1.70;;
19940;SDS011;10132;50.864;5.176;2023-06-26T11:14:42;4.07;;;1.60;;
19940;SDS011;10132;50.864;5.176;2023-06-26T11:16:48;2.65;;;1.20;;
19940;SDS011;10132;50.864;5.176;2023-06-26T11:18:56;3.47;;;1.63;;
19940;SDS011;10132;50.864;5.176;2023-06-26T11:21:06;3.40;;;1.35;;
19940;SDS011;10132;50.864;5.176;2023-06-26T11:23:09;4.13;;;1.50;;
19940;SDS011;10132;50.864;5.176;2023-06-26T11:25:14;4.78;;;1.65;;
19940;SDS011;10132;50.864;5.176;2023-06-26T11:27:22;3.80;;;1.50;;
19940;SDS011;10132;50.864;5.176;2023-06-26T11:29:29;4.60;;;1.52;;
19940;SDS011;10132;50.864;5.176;2023-06-26T11:31:33;3.03;;;1.60;;
19940;SDS011;10132;50.864;5.176;2023-06-26T11:33:38;6.95;;;1.50;;
19940;SDS011;10132;50.864;5.176;2023-06-26T11:35:41;6.10;;;1.77;;
19940;SDS011;10132;50.864;5.176;2023-06-26T11:37:44;4.60;;;1.90;;
19940;SDS011;10132;50.864;5.176;2023-06-26T11:39:48;6.32;;;1.65;;
19940;SDS011;10132;50.864;5.176;2023-06-26T11:41:52;4.18;;;2.08;;
19940;SDS011;10132;50.864;5.176;2023-06-26T11:43:56;4.90;;;1.42;;
19940;SDS011;10132;50.864;5.176;2023-06-26T11:46:12;6.25;;;1.63;;
19940;SDS011;10132;50.864;5.176;2023-06-26T11:48:14;4.25;;;1.38;;
19940;SDS011;10132;50.864;5.176;2023-06-26T11:50:19;4.60;;;1.70;;
19940;SDS011;10132;50.864;5.176;2023-06-26T11:52:40;4.15;;;1.50;;
19940;SDS011;10132;50.864;5.176;2023-06-26T11:54:44;5.07;;;1.42;;
19940;SDS011;10132;50.864;5.176;2023-06-26T11:56:51;3.65;;;1.15;;
19940;SDS011;10132;50.864;5.176;2023-06-26T11:59:01;5.60;;;1.63;;
19940;SDS011;10132;50.864;5.176;2023-06-26T12:01:08;5.78;;;1.60;;
19940;SDS011;10132;50.864;5.176;2023-06-26T12:03:20;2.63;;;1.33;;
19940;SDS011;10132;50.864;5.176;2023-06-26T12:05:24;4.55;;;1.70;;
19940;SDS011;10132;50.864;5.176;2023-06-26T12:07:28;2.92;;;1.70;;
19940;SDS011;10132;50.864;5.176;2023-06-26T12:09:33;4.85;;;1.50;;
19940;SDS011;10132;50.864;5.176;2023-06-26T12:11:44;4.65;;;1.60;;
19940;SDS011;10132;50.864;5.176;2023-06-26T12:13:57;4.68;;;1.50;;
19940;SDS011;10132;50.864;5.176;2023-06-26T12:16:03;4.43;;;1.67;;
19940;SDS011;10132;50.864;5.176;2023-06-26T12:18:10;4.60;;;1.58;;
19940;SDS011;10132;50.864;5.176;2023-06-26T12:22:45;4.20;;;1.48;;
19940;SDS011;10132;50.864;5.176;2023-06-26T12:24:49;4.35;;;1.50;;
19940;SDS011;10132;50.864;5.176;2023-06-26T12:26:58;3.05;;;1.40;;
19940;SDS011;10132;50.864;5.176;2023-06-26T12:29:10;5.53;;;1.60;;
19940;SDS011;10132;50.864;5.176;2023-06-26T12:31:19;6.00;;;1.52;;
19940;SDS011;10132;50.864;5.176;2023-06-26T12:33:26;7.10;;;1.80;;
19940;SDS011;10132;50.864;5.176;2023-06-26T12:35:35;3.83;;;1.60;;
19940;SDS011;10132;50.864;5.176;2023-06-26T12:37:43;4.82;;;1.40;;
19940;SDS011;10132;50.864;5.176;2023-06-26T12:39:55;4.22;;;1.52;;
19940;SDS011;10132;50.864;5.176;2023-06-26T12:42:06;3.67;;;1.55;;
19940;SDS011;10132;50.864;5.176;2023-06-26T12:44:19;3.58;;;1.40;;
19940;SDS011;10132;50.864;5.176;2023-06-26T12:46:32;5.25;;;1.50;;
19940;SDS011;10132;50.864;5.176;2023-06-26T12:48:46;4.28;;;1.65;;
19940;SDS011;10132;50.864;5.176;2023-06-26T12:50:59;5.40;;;1.70;;
19940;SDS011;10132;50.864;5.176;2023-06-26T12:53:03;3.47;;;1.42;;
19940;SDS011;10132;50.864;5.176;2023-06-26T12:55:06;4.40;;;1.50;;
19940;SDS011;10132;50.864;5.176;2023-06-26T12:57:20;4.57;;;1.70;;
19940;SDS011;10132;50.864;5.176;2023-06-26T12:59:31;6.28;;;1.52;;
19940;SDS011;10132;50.864;5.176;2023-06-26T13:01:45;3.55;;;1.67;;
19940;SDS011;10132;50.864;5.176;2023-06-26T13:04:01;3.53;;;1.35;;